createdAt,value
2018-12-02T00:01:50.624Z,16.97
2018-12-02T00:04:18.312Z,16.60
2018-12-02T00:06:46.067Z,16.20
2018-12-02T00:09:13.824Z,15.70
2018-12-02T00:11:41.604Z,15.73
2018-12-02T00:14:09.351Z,15.60
2018-12-02T00:16:37.120Z,16.80
2018-12-02T00:19:04.956Z,16.90
2018-12-02T00:21:32.623Z,17.67
2018-12-02T00:24:00.342Z,17.00
2018-12-02T00:26:28.067Z,15.80
2018-12-02T00:28:55.828Z,14.33
2018-12-02T00:31:23.482Z,14.67
2018-12-02T00:33:52.189Z,15.20
2018-12-02T00:36:19.988Z,15.40
2018-12-02T00:38:47.748Z,15.90
2018-12-02T00:41:15.463Z,15.80
2018-12-02T00:43:43.131Z,15.50
2018-12-02T00:46:10.880Z,15.50
2018-12-02T00:48:38.563Z,15.73
2018-12-02T00:51:06.329Z,17.07
2018-12-02T00:53:34.014Z,16.77
2018-12-02T00:56:01.593Z,15.07
2018-12-02T00:58:29.350Z,16.17
2018-12-02T01:00:57.059Z,15.47
2018-12-02T01:03:24.827Z,17.00
2018-12-02T01:05:52.512Z,15.17
2018-12-02T01:08:20.304Z,15.70
2018-12-02T01:10:48.031Z,16.33
2018-12-02T01:13:15.772Z,16.60
2018-12-02T01:15:43.485Z,16.17
2018-12-02T01:18:11.203Z,16.73
2018-12-02T01:20:39.121Z,16.23
2018-12-02T01:23:06.879Z,16.37
2018-12-02T01:25:35.095Z,15.13
2018-12-02T01:28:02.812Z,16.33
2018-12-02T01:30:30.571Z,15.43
2018-12-02T01:32:58.340Z,16.93
2018-12-02T01:35:26.155Z,15.60
2018-12-02T01:37:53.859Z,15.83
2018-12-02T01:40:22.263Z,15.43
2018-12-02T01:42:50.347Z,16.50
2018-12-02T01:45:21.616Z,15.03
2018-12-02T01:47:49.319Z,15.33
2018-12-02T01:50:17.514Z,14.53
2018-12-02T01:52:45.800Z,15.17
2018-12-02T01:55:13.513Z,16.10
2018-12-02T01:57:41.175Z,14.63
2018-12-02T02:00:10.128Z,15.90
2018-12-02T02:02:37.815Z,15.30
2018-12-02T02:05:05.528Z,14.27
2018-12-02T02:07:33.307Z,15.23
2018-12-02T02:10:01.049Z,14.63
2018-12-02T02:12:28.780Z,13.80
2018-12-02T02:14:56.443Z,14.00
2018-12-02T02:17:24.140Z,13.97
2018-12-02T02:19:51.859Z,13.53
2018-12-02T02:22:19.552Z,14.40
2018-12-02T02:24:47.296Z,14.80
2018-12-02T02:27:14.988Z,13.40
2018-12-02T02:29:42.703Z,14.20
2018-12-02T02:32:10.429Z,13.40
2018-12-02T02:34:38.169Z,14.00
2018-12-02T02:37:05.931Z,14.30
2018-12-02T02:39:34.211Z,13.70
2018-12-02T02:42:01.969Z,13.77
2018-12-02T02:44:29.661Z,13.90
2018-12-02T02:46:57.320Z,12.83
2018-12-02T02:49:25.092Z,13.47
2018-12-02T02:51:52.800Z,14.50
2018-12-02T02:54:20.478Z,13.83
2018-12-02T02:56:48.172Z,13.50
2018-12-02T02:59:15.911Z,14.60
2018-12-02T03:01:43.706Z,14.17
2018-12-02T03:04:11.453Z,12.70
2018-12-02T03:06:39.183Z,12.37
2018-12-02T03:09:07.424Z,13.47
2018-12-02T03:11:35.243Z,13.73
2018-12-02T03:14:02.950Z,13.07
2018-12-02T03:16:30.647Z,14.40
2018-12-02T03:18:58.386Z,14.13
2018-12-02T03:21:26.107Z,13.57
2018-12-02T03:23:54.791Z,13.30
2018-12-02T03:26:22.531Z,13.80
2018-12-02T03:28:50.244Z,13.97
2018-12-02T03:31:17.971Z,14.13
2018-12-02T03:33:45.732Z,14.07
2018-12-02T03:36:13.436Z,13.90
2018-12-02T03:38:42.214Z,13.40
2018-12-02T03:41:09.977Z,13.60
2018-12-02T03:43:37.790Z,14.20
2018-12-02T03:46:05.840Z,12.80
2018-12-02T03:48:33.604Z,13.43
2018-12-02T03:51:01.360Z,13.03
2018-12-02T03:53:29.108Z,12.60
2018-12-02T03:55:56.835Z,13.70
2018-12-02T03:58:24.550Z,13.37
2018-12-02T04:00:52.263Z,12.60
2018-12-02T04:03:19.968Z,13.80
2018-12-02T04:05:47.751Z,12.60
2018-12-02T04:08:16.476Z,13.07
2018-12-02T04:10:44.239Z,12.70
2018-12-02T04:13:11.980Z,14.23
2018-12-02T04:15:39.995Z,13.00
2018-12-02T04:18:07.665Z,12.63
2018-12-02T04:20:35.423Z,12.70
2018-12-02T04:23:03.212Z,13.50
2018-12-02T04:25:30.960Z,12.03
2018-12-02T04:27:58.721Z,12.73
2018-12-02T04:30:26.408Z,12.40
2018-12-02T04:32:54.128Z,12.37
2018-12-02T04:35:23.188Z,11.97
2018-12-02T04:37:51.912Z,11.53
2018-12-02T04:40:19.709Z,11.47
2018-12-02T04:42:47.449Z,12.50
2018-12-02T04:45:16.524Z,12.80
2018-12-02T04:47:44.272Z,11.27
2018-12-02T04:50:13.353Z,12.00
2018-12-02T04:52:41.084Z,12.70
2018-12-02T04:55:09.094Z,11.70
2018-12-02T04:57:36.795Z,11.97
2018-12-02T05:00:05.595Z,12.97
2018-12-02T05:02:33.322Z,12.73
2018-12-02T05:05:01.101Z,12.93
2018-12-02T05:07:28.806Z,12.30
2018-12-02T05:09:56.531Z,12.27
2018-12-02T05:12:24.335Z,11.90
2018-12-02T05:14:52.076Z,11.80
2018-12-02T05:17:19.832Z,11.97
2018-12-02T05:19:47.575Z,12.30
2018-12-02T05:22:15.267Z,12.23
2018-12-02T05:24:43.924Z,12.63
2018-12-02T05:27:11.640Z,11.40
2018-12-02T05:29:39.384Z,12.50
2018-12-02T05:32:07.139Z,12.27
2018-12-02T05:34:34.935Z,11.90
2018-12-02T05:37:02.697Z,11.50
2018-12-02T05:39:30.408Z,11.70
2018-12-02T05:42:03.599Z,11.73
2018-12-02T05:44:31.343Z,11.80
2018-12-02T05:46:59.031Z,11.77
2018-12-02T05:49:26.711Z,11.70
2018-12-02T05:51:54.443Z,12.20
2018-12-02T05:54:22.131Z,12.83
2018-12-02T05:56:49.883Z,11.57
2018-12-02T05:59:17.551Z,11.67
2018-12-02T06:01:45.250Z,10.83
2018-12-02T06:04:13.018Z,11.87
2018-12-02T06:06:40.652Z,10.90
2018-12-02T06:09:08.924Z,11.70
2018-12-02T06:11:37.641Z,11.40
2018-12-02T06:14:05.388Z,11.70
2018-12-02T06:16:33.156Z,10.93
2018-12-02T06:19:00.908Z,10.90
2018-12-02T06:21:28.688Z,10.73
2018-12-02T06:23:56.432Z,10.60
2018-12-02T06:26:24.212Z,11.30
2018-12-02T06:28:51.917Z,11.27
2018-12-02T06:31:19.634Z,11.10
2018-12-02T06:33:47.362Z,11.07
2018-12-02T06:36:15.055Z,11.60
2018-12-02T06:38:42.824Z,10.87
2018-12-02T06:41:10.550Z,11.50
2018-12-02T06:43:38.283Z,11.27
2018-12-02T06:46:06.028Z,10.60
2018-12-02T06:48:33.747Z,11.53
2018-12-02T06:51:01.461Z,11.20
2018-12-02T06:53:29.215Z,11.03
2018-12-02T06:55:58.292Z,11.30
2018-12-02T06:58:33.399Z,10.93
2018-12-02T07:01:06.082Z,10.80
2018-12-02T07:03:36.123Z,11.73
2018-12-02T07:06:03.863Z,12.10
2018-12-02T07:08:31.558Z,11.90
2018-12-02T07:10:59.303Z,11.00
2018-12-02T07:13:26.982Z,12.30
2018-12-02T07:15:54.719Z,12.07
2018-12-02T07:18:23.050Z,11.90
2018-12-02T07:20:52.373Z,11.97
2018-12-02T07:23:20.126Z,10.77
2018-12-02T07:25:48.512Z,11.20
2018-12-02T07:28:16.232Z,11.60
2018-12-02T07:30:43.972Z,11.17
2018-12-02T07:33:11.688Z,11.10
2018-12-02T07:35:39.419Z,11.80
2018-12-02T07:38:09.312Z,11.10
2018-12-02T07:40:37.567Z,10.00
2018-12-02T07:43:06.014Z,10.60
2018-12-02T07:45:34.029Z,10.47
2018-12-02T07:48:01.459Z,10.60
2018-12-02T07:50:29.159Z,10.57
2018-12-02T07:52:56.831Z,10.40
2018-12-02T07:55:24.579Z,10.30
2018-12-02T07:57:52.247Z,9.60
2018-12-02T08:00:19.954Z,9.87
2018-12-02T08:02:47.724Z,10.77
2018-12-02T08:05:16.017Z,10.43
2018-12-02T08:07:44.284Z,10.20
2018-12-02T08:10:12.790Z,10.53
2018-12-02T08:12:40.519Z,10.23
2018-12-02T08:15:10.756Z,11.33
2018-12-02T08:17:38.523Z,10.50
2018-12-02T08:20:10.788Z,10.60
2018-12-02T08:22:38.499Z,11.13
2018-12-02T08:25:07.240Z,11.07
2018-12-02T08:27:36.000Z,11.33
2018-12-02T08:30:04.316Z,11.07
2018-12-02T08:32:32.068Z,11.37
2018-12-02T08:34:59.851Z,10.10
2018-12-02T08:37:27.531Z,11.10
2018-12-02T08:39:55.211Z,10.63
2018-12-02T08:42:22.956Z,11.13
2018-12-02T08:44:50.674Z,9.90
2018-12-02T08:47:18.349Z,11.20
2018-12-02T08:49:46.084Z,11.23
2018-12-02T08:52:13.847Z,10.53
2018-12-02T08:54:41.629Z,10.53
2018-12-02T08:57:09.392Z,10.60
2018-12-02T08:59:37.111Z,10.57
2018-12-02T09:02:04.817Z,11.30
2018-12-02T09:04:32.561Z,10.40
2018-12-02T09:07:00.308Z,11.53
2018-12-02T09:09:28.634Z,10.93
2018-12-02T09:11:56.008Z,10.40
2018-12-02T09:14:23.847Z,9.93
2018-12-02T09:16:51.588Z,10.30
2018-12-02T09:19:19.320Z,10.37
2018-12-02T09:21:47.017Z,10.17
2018-12-02T09:24:14.747Z,10.50
2018-12-02T09:26:42.476Z,10.80
2018-12-02T09:29:10.166Z,10.40
2018-12-02T09:31:37.904Z,10.43
2018-12-02T09:34:05.611Z,10.07
2018-12-02T09:36:33.302Z,11.33
2018-12-02T09:39:01.055Z,9.97
2018-12-02T09:41:28.816Z,10.03
2018-12-02T09:43:56.547Z,10.73
2018-12-02T09:46:24.246Z,9.73
2018-12-02T09:48:52.005Z,9.60
2018-12-02T09:51:20.687Z,9.37
2018-12-02T09:53:48.472Z,10.13
2018-12-02T09:56:16.232Z,10.20
2018-12-02T09:58:43.946Z,9.87
2018-12-02T10:01:11.696Z,9.93
2018-12-02T10:03:39.424Z,9.73
2018-12-02T10:06:07.169Z,9.97
2018-12-02T10:08:34.924Z,8.37
2018-12-02T10:11:02.606Z,9.70
2018-12-02T10:13:30.356Z,9.90
2018-12-02T10:15:58.051Z,10.73
2018-12-02T10:18:25.796Z,9.80
2018-12-02T10:20:54.027Z,9.23
2018-12-02T10:23:22.939Z,9.43
2018-12-02T10:25:50.715Z,8.77
2018-12-02T10:28:19.397Z,10.13
2018-12-02T10:30:47.099Z,9.50
2018-12-02T10:33:14.839Z,9.17
2018-12-02T10:35:42.588Z,8.90
2018-12-02T10:38:10.288Z,8.77
2018-12-02T10:40:38.272Z,9.27
2018-12-02T10:43:06.219Z,8.50
2018-12-02T10:45:33.999Z,8.93
2018-12-02T10:48:02.234Z,8.77
2018-12-02T10:50:31.006Z,8.10
2018-12-02T10:53:01.359Z,8.37
2018-12-02T10:55:30.192Z,8.90
2018-12-02T10:57:57.879Z,8.60
2018-12-02T11:00:31.241Z,7.80
2018-12-02T11:02:59.014Z,8.93
2018-12-02T11:05:26.755Z,8.40
2018-12-02T11:07:54.774Z,8.80
2018-12-02T11:10:22.455Z,8.53
2018-12-02T11:12:50.115Z,7.90
2018-12-02T11:15:17.777Z,8.07
2018-12-02T11:17:45.799Z,8.40
2018-12-02T11:20:14.876Z,8.00
2018-12-02T11:22:42.652Z,7.90
2018-12-02T11:25:11.872Z,8.10
2018-12-02T11:27:39.695Z,8.00
2018-12-02T11:30:10.815Z,7.90
2018-12-02T11:32:39.631Z,8.83
2018-12-02T11:35:08.471Z,8.03
2018-12-02T11:37:36.168Z,8.23
2018-12-02T11:40:04.688Z,8.40
2018-12-02T11:42:33.399Z,8.43
2018-12-02T11:45:01.089Z,7.80
2018-12-02T11:47:28.797Z,8.73
2018-12-02T11:49:56.560Z,7.83
2018-12-02T11:52:24.247Z,8.50
2018-12-02T11:54:51.923Z,7.80
2018-12-02T11:57:19.625Z,7.40
2018-12-02T11:59:47.347Z,7.60
2018-12-02T12:02:15.049Z,8.00
2018-12-02T12:04:42.834Z,7.80
2018-12-02T12:07:10.536Z,8.30
2018-12-02T12:09:38.220Z,7.73
2018-12-02T12:12:05.995Z,6.90
2018-12-02T12:14:33.744Z,8.13
2018-12-02T12:17:01.458Z,7.40
2018-12-02T12:19:29.168Z,7.40
2018-12-02T12:21:56.819Z,7.60
2018-12-02T12:24:24.540Z,7.50
2018-12-02T12:26:52.296Z,7.70
2018-12-02T12:29:20.076Z,7.17
2018-12-02T12:31:47.767Z,8.00
2018-12-02T12:34:15.496Z,8.27
2018-12-02T12:36:43.216Z,8.23
2018-12-02T12:39:10.867Z,7.77
2018-12-02T12:41:38.567Z,8.00
2018-12-02T12:44:07.676Z,9.10
2018-12-02T12:46:35.387Z,7.53
2018-12-02T12:49:03.100Z,8.60
2018-12-02T12:51:30.811Z,8.30
2018-12-02T12:53:58.475Z,8.53
2018-12-02T12:56:26.168Z,7.90
2018-12-02T12:58:54.353Z,7.87
2018-12-02T13:01:22.083Z,9.20
2018-12-02T13:03:49.826Z,9.23
2018-12-02T13:06:17.511Z,8.50
2018-12-02T13:08:45.170Z,8.50
2018-12-02T13:11:12.908Z,9.30
2018-12-02T13:13:40.621Z,9.10
2018-12-02T13:16:08.354Z,9.13
2018-12-02T13:18:36.052Z,9.10
2018-12-02T13:21:03.819Z,9.10
2018-12-02T13:23:31.598Z,8.20
2018-12-02T13:25:59.324Z,8.90
2018-12-02T13:28:27.119Z,8.87
2018-12-02T13:30:54.858Z,8.60
2018-12-02T13:33:22.623Z,8.80
2018-12-02T13:35:50.389Z,8.97
2018-12-02T13:38:18.151Z,8.70
2018-12-02T13:40:45.872Z,8.90
2018-12-02T13:43:16.272Z,8.37
2018-12-02T13:45:44.410Z,7.73
2018-12-02T13:48:12.153Z,8.67
2018-12-02T13:50:39.871Z,8.57
2018-12-02T13:53:07.602Z,8.60
2018-12-02T13:55:35.273Z,9.27
2018-12-02T13:58:03.024Z,9.30
2018-12-02T14:00:31.094Z,9.73
2018-12-02T14:03:00.643Z,9.43
2018-12-02T14:05:28.348Z,8.43
2018-12-02T14:07:56.020Z,8.80
2018-12-02T14:10:23.735Z,9.50
2018-12-02T14:12:54.934Z,9.20
2018-12-02T14:17:32.135Z,9.80
2018-12-02T14:19:59.875Z,10.43
2018-12-02T14:22:27.617Z,10.27
2018-12-02T14:24:55.319Z,9.67
2018-12-02T14:27:23.144Z,9.40
2018-12-02T14:29:52.540Z,9.43
2018-12-02T14:32:20.708Z,9.77
2018-12-02T14:34:48.788Z,9.90
2018-12-02T14:37:16.566Z,9.10
2018-12-02T14:39:44.308Z,9.00
2018-12-02T14:42:12.053Z,9.47
2018-12-02T14:44:39.791Z,9.70
2018-12-02T14:47:07.485Z,10.10
2018-12-02T14:49:35.241Z,9.10
2018-12-02T14:52:02.886Z,9.57
2018-12-02T14:54:30.653Z,9.23
2018-12-02T14:56:58.340Z,9.63
2018-12-02T14:59:26.061Z,10.83
2018-12-02T15:01:53.730Z,10.00
2018-12-02T15:04:21.390Z,10.20
2018-12-02T15:06:49.095Z,10.00
2018-12-02T15:09:16.808Z,10.07
2018-12-02T15:11:44.760Z,10.60
2018-12-02T15:14:12.484Z,10.80
2018-12-02T15:16:41.227Z,11.00
2018-12-02T15:19:09.560Z,11.77
2018-12-02T15:21:37.268Z,11.17
2018-12-02T15:24:04.976Z,11.30
2018-12-02T15:26:32.719Z,10.90
2018-12-02T15:29:00.582Z,10.70
2018-12-02T15:31:28.219Z,11.50
2018-12-02T15:33:55.878Z,12.07
2018-12-02T15:36:23.572Z,12.60
2018-12-02T15:38:51.342Z,11.93
2018-12-02T15:41:19.119Z,10.97
2018-12-02T15:43:46.791Z,11.60
2018-12-02T15:46:14.524Z,11.50
2018-12-02T15:48:42.271Z,11.70
2018-12-02T15:51:09.968Z,11.47
2018-12-02T15:53:37.708Z,11.53
2018-12-02T15:56:05.691Z,11.50
2018-12-02T15:58:33.442Z,11.97
2018-12-02T16:01:01.149Z,11.43
2018-12-02T16:03:28.851Z,12.90
2018-12-02T16:05:56.592Z,12.10
2018-12-02T16:08:24.290Z,13.10
2018-12-02T16:10:51.977Z,11.93
2018-12-02T16:13:19.702Z,13.00
2018-12-02T16:15:47.400Z,12.80
2018-12-02T16:18:16.055Z,13.20
2018-12-02T16:20:46.367Z,12.60
2018-12-02T16:23:17.818Z,12.87
2018-12-02T16:25:46.521Z,13.07
2018-12-02T16:28:17.769Z,13.63
2018-12-02T16:30:45.564Z,13.10
2018-12-02T16:33:13.289Z,12.83
2018-12-02T16:35:40.988Z,13.23
2018-12-02T16:38:09.579Z,13.27
2018-12-02T16:40:37.353Z,13.03
2018-12-02T16:43:05.664Z,13.20
2018-12-02T16:45:33.384Z,12.90
2018-12-02T16:48:01.153Z,14.47
2018-12-02T16:50:30.252Z,12.87
2018-12-02T16:52:59.571Z,13.70
2018-12-02T16:55:28.352Z,14.00
2018-12-02T16:58:01.503Z,16.90
2018-12-02T17:00:36.568Z,16.67
2018-12-02T17:03:04.311Z,14.23
2018-12-02T17:05:32.104Z,15.27
2018-12-02T17:08:00.840Z,16.50
2018-12-02T17:10:28.564Z,16.23
2018-12-02T17:12:56.355Z,16.00
2018-12-02T17:15:24.064Z,15.80
2018-12-02T17:17:51.783Z,15.20
2018-12-02T17:20:19.507Z,13.83
2018-12-02T17:22:47.219Z,14.87
2018-12-02T17:25:14.895Z,15.17
2018-12-02T17:27:43.511Z,15.53
2018-12-02T17:30:12.528Z,13.83
2018-12-02T17:32:40.239Z,14.37
2018-12-02T17:35:08.028Z,16.43
2018-12-02T17:37:35.764Z,14.90
2018-12-02T17:40:05.603Z,14.77
2018-12-02T17:42:33.356Z,14.30
2018-12-02T17:45:01.107Z,15.10
2018-12-02T17:47:28.850Z,13.83
2018-12-02T17:49:56.581Z,13.80
2018-12-02T17:52:24.249Z,14.50
2018-12-02T17:54:51.971Z,13.63
2018-12-02T17:57:19.707Z,13.13
2018-12-02T17:59:47.580Z,14.30
2018-12-02T18:02:16.342Z,13.83
2018-12-02T18:04:44.023Z,12.83
2018-12-02T18:07:11.703Z,12.90
2018-12-02T18:09:39.439Z,13.03
2018-12-02T18:12:07.120Z,11.80
2018-12-02T18:14:34.828Z,14.07
2018-12-02T18:17:03.558Z,13.70
2018-12-02T18:19:31.258Z,13.27
2018-12-02T18:21:59.018Z,12.77
2018-12-02T18:24:26.772Z,12.40
2018-12-02T18:26:54.537Z,12.50
2018-12-02T18:29:22.307Z,12.90
2018-12-02T18:31:50.040Z,11.80
2018-12-02T18:34:17.731Z,11.53
2018-12-02T18:36:45.512Z,12.07
2018-12-02T18:39:14.160Z,12.17
2018-12-02T18:41:42.801Z,11.90
2018-12-02T18:44:11.399Z,11.47
2018-12-02T18:46:39.083Z,11.30
2018-12-02T18:49:06.804Z,11.23
2018-12-02T18:51:34.523Z,11.00
2018-12-02T18:54:02.216Z,11.20
2018-12-02T18:56:29.951Z,10.97
2018-12-02T18:58:57.698Z,11.00
2018-12-02T19:01:25.448Z,10.00
2018-12-02T19:03:53.193Z,10.87
2018-12-02T19:06:20.899Z,10.60
2018-12-02T19:08:48.612Z,10.23
2018-12-02T19:11:16.411Z,9.70
2018-12-02T19:13:44.116Z,10.37
2018-12-02T19:16:11.870Z,9.77
2018-12-02T19:18:39.743Z,10.40
2018-12-02T19:21:10.892Z,9.90
2018-12-02T19:23:38.648Z,10.13
2018-12-02T19:26:06.385Z,10.10
2018-12-02T19:28:34.119Z,10.23
2018-12-02T19:31:01.897Z,9.73
2018-12-02T19:33:29.612Z,10.23
2018-12-02T19:35:58.459Z,9.33
2018-12-02T19:38:26.218Z,10.30
2018-12-02T19:40:53.945Z,9.33
2018-12-02T19:43:21.666Z,9.20
2018-12-02T19:45:49.950Z,9.47
2018-12-02T19:48:17.675Z,9.13
2018-12-02T19:50:45.484Z,8.00
2018-12-02T19:53:13.131Z,8.87
2018-12-02T19:55:40.852Z,8.47
2018-12-02T19:58:09.323Z,8.70
2018-12-02T20:00:41.100Z,7.70
2018-12-02T20:03:09.131Z,7.87
2018-12-02T20:05:36.896Z,7.33
2018-12-02T20:08:04.971Z,7.90
2018-12-02T20:10:32.744Z,8.00
2018-12-02T20:13:04.408Z,7.60
2018-12-02T20:15:32.143Z,7.00
2018-12-02T20:17:59.896Z,6.70
2018-12-02T20:20:33.499Z,6.63
2018-12-02T20:23:01.175Z,7.27
2018-12-02T20:25:28.915Z,7.17
2018-12-02T20:28:00.121Z,7.63
2018-12-02T20:30:28.292Z,7.20
2018-12-02T20:32:56.028Z,6.40
2018-12-02T20:35:23.783Z,7.33
2018-12-02T20:37:51.499Z,6.40
2018-12-02T20:40:19.878Z,7.53
2018-12-02T20:42:48.017Z,6.43
2018-12-02T20:45:16.201Z,6.20
2018-12-02T20:47:43.907Z,6.90
2018-12-02T20:50:12.223Z,6.63
2018-12-02T20:52:39.984Z,6.90
2018-12-02T20:55:09.323Z,6.20
2018-12-02T20:57:37.031Z,6.67
2018-12-02T21:00:06.663Z,6.20
2018-12-02T21:02:34.383Z,6.40
2018-12-02T21:05:02.096Z,7.53
2018-12-02T21:07:29.840Z,7.97
2018-12-02T21:09:57.630Z,6.03
2018-12-02T21:12:25.331Z,6.67
2018-12-02T21:14:53.042Z,6.63
2018-12-02T21:17:20.786Z,6.77
2018-12-02T21:19:48.481Z,8.93
2018-12-02T21:22:16.212Z,8.43
2018-12-02T21:24:43.921Z,10.47
2018-12-02T21:27:11.669Z,9.70
2018-12-02T21:29:39.399Z,10.67
2018-12-02T21:32:07.149Z,8.23
2018-12-02T21:34:34.896Z,8.47
2018-12-02T21:37:02.571Z,8.87
2018-12-02T21:39:30.296Z,8.10
2018-12-02T21:41:58.043Z,9.50
2018-12-02T21:44:25.786Z,8.73
2018-12-02T21:46:54.173Z,8.83
2018-12-02T21:49:21.920Z,8.80
2018-12-02T21:51:49.587Z,8.43
2018-12-02T21:54:17.255Z,7.10
2018-12-02T21:56:44.999Z,7.73
2018-12-02T21:59:12.685Z,6.73
2018-12-02T22:01:40.438Z,7.07
2018-12-02T22:04:08.183Z,6.20
2018-12-02T22:06:35.862Z,6.30
2018-12-02T22:09:03.859Z,6.37
2018-12-02T22:11:31.636Z,6.07
2018-12-02T22:13:59.351Z,5.77
2018-12-02T22:16:27.018Z,6.00
2018-12-02T22:18:54.699Z,5.90
2018-12-02T22:21:22.463Z,5.90
2018-12-02T22:23:50.779Z,6.20
2018-12-02T22:26:19.528Z,5.90
2018-12-02T22:28:47.268Z,5.50
2018-12-02T22:31:14.928Z,6.07
2018-12-02T22:33:42.599Z,6.40
2018-12-02T22:36:14.191Z,5.77
2018-12-02T22:38:39.030Z,6.03
2018-12-02T22:41:06.723Z,6.33
2018-12-02T22:43:34.368Z,6.00
2018-12-02T22:46:02.057Z,5.67
2018-12-02T22:48:29.817Z,6.90
2018-12-02T22:50:58.500Z,6.67
2018-12-02T22:53:26.255Z,6.70
2018-12-02T22:55:54.055Z,6.10
2018-12-02T22:58:21.792Z,7.17
2018-12-02T23:00:54.975Z,6.80
2018-12-02T23:03:22.752Z,6.43
2018-12-02T23:05:50.516Z,6.60
2018-12-02T23:08:18.268Z,6.30
2018-12-02T23:10:45.945Z,6.90
2018-12-02T23:13:13.683Z,6.13
2018-12-02T23:15:41.455Z,6.40
2018-12-02T23:18:11.628Z,6.53
2018-12-02T23:20:40.355Z,7.30
2018-12-02T23:23:08.055Z,6.87
2018-12-02T23:25:35.771Z,7.50
2018-12-02T23:28:03.489Z,6.20
2018-12-02T23:30:32.252Z,6.70
2018-12-02T23:32:59.983Z,7.43
2018-12-02T23:35:27.660Z,7.47
2018-12-02T23:37:55.368Z,6.90
2018-12-02T23:40:24.138Z,6.80
2018-12-02T23:42:52.160Z,5.63
2018-12-02T23:45:19.876Z,6.00
2018-12-02T23:47:47.638Z,5.70
2018-12-02T23:50:17.868Z,5.70
2018-12-02T23:52:45.683Z,6.10
2018-12-02T23:55:14.232Z,5.70
2018-12-02T23:57:41.922Z,6.83
